Hegins, Pennsylvania
Current Conditions -  °F | °C
As of 12:58 AM on Thursday 18 Dec 2014 (Local Time) from KMUI Reporting Station
Light Rain Light Rain  
Wind Chill: 24°   Ceiling: 3800
Heat Index: 35°   Visibility: 10mi
Dew Point: 21°   Wind: 20mph
Humidity: 57%   Direction: 290°WNW
Pressure: 30.01"   Gusts: 29mph
Location:  40.65°N, 76.5°W
Report Text: KMUI 180558Z AUTO 29017G25KT 10SM -RA BKN038 BKN045 02/M06 A3001 RMK AO2 PK WND 26029/34 RAB0510E0525B0551 SLP169 P0000 60000 T00151063 10035 20015 50003
Loading
Personal Weather Stations






























Interactive Weather Map New forecast layout! Learn more

10-Day Weather Forecast

Advertisements
Track Severe Weather on mobile